sensor_id;sensor_type;location;lat;lon;timestamp;P1;durP1;ratioP1;P2;durP2;ratioP2
39846;SDS011;25517;52.422;10.782;2024-03-02T00:00:36;27.20;;;15.75;;
39846;SDS011;25517;52.422;10.782;2024-03-02T00:03:02;28.90;;;16.73;;
39846;SDS011;25517;52.422;10.782;2024-03-02T00:05:28;27.13;;;16.90;;
39846;SDS011;25517;52.422;10.782;2024-03-02T00:07:57;30.85;;;17.02;;
39846;SDS011;25517;52.422;10.782;2024-03-02T00:10:39;32.83;;;16.35;;
39846;SDS011;25517;52.422;10.782;2024-03-02T00:13:05;31.77;;;17.90;;
39846;SDS011;25517;52.422;10.782;2024-03-02T00:18:13;27.83;;;15.48;;
39846;SDS011;25517;52.422;10.782;2024-03-02T00:20:41;25.38;;;15.30;;
39846;SDS011;25517;52.422;10.782;2024-03-02T00:23:07;34.80;;;18.13;;
39846;SDS011;25517;52.422;10.782;2024-03-02T00:25:39;29.33;;;16.45;;
39846;SDS011;25517;52.422;10.782;2024-03-02T00:31:04;27.05;;;16.02;;
39846;SDS011;25517;52.422;10.782;2024-03-02T00:33:44;27.52;;;16.55;;
39846;SDS011;25517;52.422;10.782;2024-03-02T00:36:15;28.10;;;16.85;;
39846;SDS011;25517;52.422;10.782;2024-03-02T00:38:44;29.73;;;16.38;;
39846;SDS011;25517;52.422;10.782;2024-03-02T00:41:15;30.90;;;18.75;;
39846;SDS011;25517;52.422;10.782;2024-03-02T00:44:04;31.60;;;17.27;;
39846;SDS011;25517;52.422;10.782;2024-03-02T00:46:35;31.85;;;17.95;;
39846;SDS011;25517;52.422;10.782;2024-03-02T00:49:02;33.13;;;18.98;;
39846;SDS011;25517;52.422;10.782;2024-03-02T00:51:30;32.22;;;18.20;;
39846;SDS011;25517;52.422;10.782;2024-03-02T00:54:01;31.45;;;17.88;;
39846;SDS011;25517;52.422;10.782;2024-03-02T00:56:29;32.17;;;18.55;;
39846;SDS011;25517;52.422;10.782;2024-03-02T00:58:55;34.90;;;19.33;;
39846;SDS011;25517;52.422;10.782;2024-03-02T01:01:21;31.95;;;17.55;;
39846;SDS011;25517;52.422;10.782;2024-03-02T01:03:47;36.25;;;20.67;;
39846;SDS011;25517;52.422;10.782;2024-03-02T01:06:14;35.65;;;18.98;;
39846;SDS011;25517;52.422;10.782;2024-03-02T01:08:40;32.60;;;18.80;;
39846;SDS011;25517;52.422;10.782;2024-03-02T01:11:05;34.55;;;18.52;;
39846;SDS011;25517;52.422;10.782;2024-03-02T01:13:31;27.02;;;16.23;;
39846;SDS011;25517;52.422;10.782;2024-03-02T01:15:57;22.63;;;14.75;;
39846;SDS011;25517;52.422;10.782;2024-03-02T01:18:23;31.35;;;18.27;;
39846;SDS011;25517;52.422;10.782;2024-03-02T01:20:49;31.45;;;16.92;;
39846;SDS011;25517;52.422;10.782;2024-03-02T01:23:20;30.17;;;16.58;;
39846;SDS011;25517;52.422;10.782;2024-03-02T01:25:49;31.88;;;18.42;;
39846;SDS011;25517;52.422;10.782;2024-03-02T01:28:15;34.60;;;19.67;;
39846;SDS011;25517;52.422;10.782;2024-03-02T01:30:40;31.63;;;18.60;;
39846;SDS011;25517;52.422;10.782;2024-03-02T01:33:06;33.97;;;19.20;;
39846;SDS011;25517;52.422;10.782;2024-03-02T01:35:32;34.90;;;17.98;;
39846;SDS011;25517;52.422;10.782;2024-03-02T01:37:58;34.05;;;18.70;;
39846;SDS011;25517;52.422;10.782;2024-03-02T01:40:24;34.83;;;21.33;;
39846;SDS011;25517;52.422;10.782;2024-03-02T01:42:51;37.40;;;20.02;;
39846;SDS011;25517;52.422;10.782;2024-03-02T01:45:18;37.70;;;20.48;;
39846;SDS011;25517;52.422;10.782;2024-03-02T01:47:44;42.92;;;22.13;;
39846;SDS011;25517;52.422;10.782;2024-03-02T01:50:11;39.08;;;21.33;;
39846;SDS011;25517;52.422;10.782;2024-03-02T01:52:36;34.55;;;19.33;;
39846;SDS011;25517;52.422;10.782;2024-03-02T01:55:03;35.65;;;21.52;;
39846;SDS011;25517;52.422;10.782;2024-03-02T01:57:29;36.60;;;20.85;;
39846;SDS011;25517;52.422;10.782;2024-03-02T01:59:55;35.22;;;20.75;;
39846;SDS011;25517;52.422;10.782;2024-03-02T02:02:20;38.20;;;21.58;;
39846;SDS011;25517;52.422;10.782;2024-03-02T02:04:46;37.33;;;20.20;;
39846;SDS011;25517;52.422;10.782;2024-03-02T02:07:12;37.92;;;20.55;;
39846;SDS011;25517;52.422;10.782;2024-03-02T02:09:39;36.20;;;21.13;;
39846;SDS011;25517;52.422;10.782;2024-03-02T02:12:08;34.38;;;19.23;;
39846;SDS011;25517;52.422;10.782;2024-03-02T02:14:34;41.45;;;22.23;;
39846;SDS011;25517;52.422;10.782;2024-03-02T02:17:00;39.75;;;21.73;;
39846;SDS011;25517;52.422;10.782;2024-03-02T02:19:26;39.90;;;21.15;;
39846;SDS011;25517;52.422;10.782;2024-03-02T02:21:51;40.67;;;22.65;;
39846;SDS011;25517;52.422;10.782;2024-03-02T02:24:17;40.60;;;22.02;;
39846;SDS011;25517;52.422;10.782;2024-03-02T02:26:42;35.63;;;20.33;;
39846;SDS011;25517;52.422;10.782;2024-03-02T02:29:08;42.33;;;22.02;;
39846;SDS011;25517;52.422;10.782;2024-03-02T02:31:40;44.30;;;23.88;;
39846;SDS011;25517;52.422;10.782;2024-03-02T02:34:06;38.72;;;21.75;;
39846;SDS011;25517;52.422;10.782;2024-03-02T02:36:32;38.40;;;21.35;;
39846;SDS011;25517;52.422;10.782;2024-03-02T02:39:00;36.53;;;20.60;;
39846;SDS011;25517;52.422;10.782;2024-03-02T02:41:28;43.67;;;23.05;;
39846;SDS011;25517;52.422;10.782;2024-03-02T02:43:54;41.38;;;23.27;;
39846;SDS011;25517;52.422;10.782;2024-03-02T02:46:20;39.47;;;21.83;;
39846;SDS011;25517;52.422;10.782;2024-03-02T02:48:45;37.53;;;21.27;;
39846;SDS011;25517;52.422;10.782;2024-03-02T02:51:11;42.22;;;22.75;;
39846;SDS011;25517;52.422;10.782;2024-03-02T02:53:37;32.17;;;19.45;;
39846;SDS011;25517;52.422;10.782;2024-03-02T02:56:05;35.10;;;20.08;;
39846;SDS011;25517;52.422;10.782;2024-03-02T02:58:31;32.00;;;19.42;;
39846;SDS011;25517;52.422;10.782;2024-03-02T03:00:57;37.60;;;21.50;;
39846;SDS011;25517;52.422;10.782;2024-03-02T03:03:22;40.58;;;24.52;;
39846;SDS011;25517;52.422;10.782;2024-03-02T03:05:48;43.05;;;22.80;;
39846;SDS011;25517;52.422;10.782;2024-03-02T03:08:14;44.45;;;23.50;;
39846;SDS011;25517;52.422;10.782;2024-03-02T03:10:41;43.05;;;23.63;;
39846;SDS011;25517;52.422;10.782;2024-03-02T03:13:06;41.83;;;23.63;;
39846;SDS011;25517;52.422;10.782;2024-03-02T03:15:34;45.85;;;26.35;;
39846;SDS011;25517;52.422;10.782;2024-03-02T03:18:01;42.05;;;24.08;;
39846;SDS011;25517;52.422;10.782;2024-03-02T03:20:28;38.78;;;20.55;;
39846;SDS011;25517;52.422;10.782;2024-03-02T03:22:55;42.20;;;23.75;;
39846;SDS011;25517;52.422;10.782;2024-03-02T03:25:20;39.95;;;21.55;;
39846;SDS011;25517;52.422;10.782;2024-03-02T03:27:46;40.60;;;23.50;;
39846;SDS011;25517;52.422;10.782;2024-03-02T03:30:12;39.55;;;21.17;;
39846;SDS011;25517;52.422;10.782;2024-03-02T03:32:37;39.55;;;22.75;;
39846;SDS011;25517;52.422;10.782;2024-03-02T03:35:04;37.78;;;21.98;;
39846;SDS011;25517;52.422;10.782;2024-03-02T03:37:30;39.50;;;21.85;;
39846;SDS011;25517;52.422;10.782;2024-03-02T03:39:58;40.35;;;21.25;;
39846;SDS011;25517;52.422;10.782;2024-03-02T03:42:24;42.83;;;21.63;;
39846;SDS011;25517;52.422;10.782;2024-03-02T03:44:49;34.63;;;19.05;;
39846;SDS011;25517;52.422;10.782;2024-03-02T03:47:15;38.17;;;21.77;;
39846;SDS011;25517;52.422;10.782;2024-03-02T03:49:40;39.28;;;20.85;;
39846;SDS011;25517;52.422;10.782;2024-03-02T03:52:06;40.10;;;22.33;;
39846;SDS011;25517;52.422;10.782;2024-03-02T03:54:31;41.70;;;22.23;;
39846;SDS011;25517;52.422;10.782;2024-03-02T03:56:57;41.20;;;21.80;;
39846;SDS011;25517;52.422;10.782;2024-03-02T03:59:22;39.30;;;22.23;;
39846;SDS011;25517;52.422;10.782;2024-03-02T04:01:48;37.65;;;21.88;;
39846;SDS011;25517;52.422;10.782;2024-03-02T04:04:14;42.33;;;21.63;;
39846;SDS011;25517;52.422;10.782;2024-03-02T04:06:39;42.80;;;22.83;;
39846;SDS011;25517;52.422;10.782;2024-03-02T04:09:05;41.20;;;22.75;;
39846;SDS011;25517;52.422;10.782;2024-03-02T04:11:31;40.17;;;22.70;;
39846;SDS011;25517;52.422;10.782;2024-03-02T04:13:56;42.33;;;23.92;;
39846;SDS011;25517;52.422;10.782;2024-03-02T04:16:22;42.25;;;24.42;;
39846;SDS011;25517;52.422;10.782;2024-03-02T04:18:48;37.38;;;21.80;;
39846;SDS011;25517;52.422;10.782;2024-03-02T04:21:13;41.92;;;21.98;;
39846;SDS011;25517;52.422;10.782;2024-03-02T04:23:38;39.65;;;21.42;;
39846;SDS011;25517;52.422;10.782;2024-03-02T04:26:04;41.10;;;21.80;;
39846;SDS011;25517;52.422;10.782;2024-03-02T04:28:29;40.95;;;23.73;;
39846;SDS011;25517;52.422;10.782;2024-03-02T04:30:55;43.95;;;23.85;;
39846;SDS011;25517;52.422;10.782;2024-03-02T04:33:21;39.63;;;23.27;;
39846;SDS011;25517;52.422;10.782;2024-03-02T04:35:46;46.67;;;25.48;;
39846;SDS011;25517;52.422;10.782;2024-03-02T04:38:12;41.03;;;23.45;;
39846;SDS011;25517;52.422;10.782;2024-03-02T04:40:37;42.53;;;25.00;;
39846;SDS011;25517;52.422;10.782;2024-03-02T04:43:03;42.70;;;23.13;;
39846;SDS011;25517;52.422;10.782;2024-03-02T04:45:28;46.63;;;24.08;;
39846;SDS011;25517;52.422;10.782;2024-03-02T04:47:54;43.20;;;23.75;;
39846;SDS011;25517;52.422;10.782;2024-03-02T04:50:19;45.63;;;24.52;;
39846;SDS011;25517;52.422;10.782;2024-03-02T04:52:45;46.13;;;24.50;;
39846;SDS011;25517;52.422;10.782;2024-03-02T04:55:10;45.65;;;23.65;;
39846;SDS011;25517;52.422;10.782;2024-03-02T04:57:42;45.53;;;24.27;;
39846;SDS011;25517;52.422;10.782;2024-03-02T05:00:08;45.22;;;24.88;;
39846;SDS011;25517;52.422;10.782;2024-03-02T05:02:34;43.78;;;24.98;;
39846;SDS011;25517;52.422;10.782;2024-03-02T05:05:00;41.30;;;24.80;;
39846;SDS011;25517;52.422;10.782;2024-03-02T05:07:25;43.45;;;24.58;;
39846;SDS011;25517;52.422;10.782;2024-03-02T05:09:51;42.97;;;24.38;;
39846;SDS011;25517;52.422;10.782;2024-03-02T05:12:16;42.60;;;24.25;;
39846;SDS011;25517;52.422;10.782;2024-03-02T05:14:48;49.10;;;26.80;;
39846;SDS011;25517;52.422;10.782;2024-03-02T05:17:13;44.45;;;25.77;;
39846;SDS011;25517;52.422;10.782;2024-03-02T05:19:39;40.88;;;23.75;;
39846;SDS011;25517;52.422;10.782;2024-03-02T05:22:04;41.35;;;23.60;;
39846;SDS011;25517;52.422;10.782;2024-03-02T05:24:30;46.25;;;26.70;;
39846;SDS011;25517;52.422;10.782;2024-03-02T05:26:56;46.78;;;25.52;;
39846;SDS011;25517;52.422;10.782;2024-03-02T05:29:21;50.75;;;25.88;;
39846;SDS011;25517;52.422;10.782;2024-03-02T05:31:47;43.83;;;25.15;;
39846;SDS011;25517;52.422;10.782;2024-03-02T05:34:13;49.85;;;26.25;;
39846;SDS011;25517;52.422;10.782;2024-03-02T05:36:39;47.67;;;26.58;;
39846;SDS011;25517;52.422;10.782;2024-03-02T05:39:05;42.83;;;24.83;;
39846;SDS011;25517;52.422;10.782;2024-03-02T05:41:33;42.42;;;24.30;;
39846;SDS011;25517;52.422;10.782;2024-03-02T05:43:59;42.40;;;24.00;;
39846;SDS011;25517;52.422;10.782;2024-03-02T05:46:25;40.03;;;23.90;;
39846;SDS011;25517;52.422;10.782;2024-03-02T05:48:50;41.47;;;24.52;;
39846;SDS011;25517;52.422;10.782;2024-03-02T05:51:16;43.85;;;26.50;;
39846;SDS011;25517;52.422;10.782;2024-03-02T05:53:41;48.20;;;26.13;;
39846;SDS011;25517;52.422;10.782;2024-03-02T05:56:07;42.78;;;24.55;;
39846;SDS011;25517;52.422;10.782;2024-03-02T05:58:33;47.38;;;27.33;;
39846;SDS011;25517;52.422;10.782;2024-03-02T06:01:22;41.17;;;24.50;;
39846;SDS011;25517;52.422;10.782;2024-03-02T06:03:56;42.30;;;23.90;;
39846;SDS011;25517;52.422;10.782;2024-03-02T06:06:25;42.60;;;24.80;;
39846;SDS011;25517;52.422;10.782;2024-03-02T06:08:50;42.45;;;24.48;;
39846;SDS011;25517;52.422;10.782;2024-03-02T06:11:16;44.08;;;25.58;;
39846;SDS011;25517;52.422;10.782;2024-03-02T06:13:44;42.85;;;23.50;;
39846;SDS011;25517;52.422;10.782;2024-03-02T06:16:09;39.40;;;22.33;;
39846;SDS011;25517;52.422;10.782;2024-03-02T06:18:35;46.53;;;25.08;;
39846;SDS011;25517;52.422;10.782;2024-03-02T06:21:00;49.10;;;24.88;;
39846;SDS011;25517;52.422;10.782;2024-03-02T06:23:26;40.10;;;22.02;;
39846;SDS011;25517;52.422;10.782;2024-03-02T06:25:52;40.53;;;22.98;;
39846;SDS011;25517;52.422;10.782;2024-03-02T06:28:18;40.78;;;24.33;;
39846;SDS011;25517;52.422;10.782;2024-03-02T06:30:43;46.63;;;26.73;;
39846;SDS011;25517;52.422;10.782;2024-03-02T06:33:10;42.72;;;25.38;;
39846;SDS011;25517;52.422;10.782;2024-03-02T06:35:36;40.22;;;24.38;;
39846;SDS011;25517;52.422;10.782;2024-03-02T06:38:01;41.80;;;25.35;;
39846;SDS011;25517;52.422;10.782;2024-03-02T06:40:27;37.70;;;21.67;;
39846;SDS011;25517;52.422;10.782;2024-03-02T06:42:53;44.78;;;24.33;;
39846;SDS011;25517;52.422;10.782;2024-03-02T06:45:18;43.03;;;22.90;;
39846;SDS011;25517;52.422;10.782;2024-03-02T06:47:44;40.75;;;22.50;;
39846;SDS011;25517;52.422;10.782;2024-03-02T06:50:09;36.17;;;21.45;;
39846;SDS011;25517;52.422;10.782;2024-03-02T06:52:35;43.72;;;23.77;;
39846;SDS011;25517;52.422;10.782;2024-03-02T06:55:01;38.47;;;22.23;;
39846;SDS011;25517;52.422;10.782;2024-03-02T06:57:27;39.33;;;20.92;;
39846;SDS011;25517;52.422;10.782;2024-03-02T06:59:52;39.90;;;22.60;;
39846;SDS011;25517;52.422;10.782;2024-03-02T07:02:22;41.17;;;23.97;;
39846;SDS011;25517;52.422;10.782;2024-03-02T07:04:48;48.60;;;24.38;;
39846;SDS011;25517;52.422;10.782;2024-03-02T07:07:13;41.00;;;22.60;;
39846;SDS011;25517;52.422;10.782;2024-03-02T07:09:39;34.50;;;20.10;;
39846;SDS011;25517;52.422;10.782;2024-03-02T07:12:04;42.53;;;23.33;;
39846;SDS011;25517;52.422;10.782;2024-03-02T07:14:30;43.08;;;23.63;;
39846;SDS011;25517;52.422;10.782;2024-03-02T07:17:14;36.00;;;21.83;;
39846;SDS011;25517;52.422;10.782;2024-03-02T07:19:40;35.95;;;21.35;;
39846;SDS011;25517;52.422;10.782;2024-03-02T07:22:06;41.42;;;22.48;;
39846;SDS011;25517;52.422;10.782;2024-03-02T07:24:38;41.58;;;22.08;;
39846;SDS011;25517;52.422;10.782;2024-03-02T07:27:10;36.05;;;20.13;;
39846;SDS011;25517;52.422;10.782;2024-03-02T07:29:37;37.15;;;21.15;;
39846;SDS011;25517;52.422;10.782;2024-03-02T07:32:03;35.83;;;22.15;;
39846;SDS011;25517;52.422;10.782;2024-03-02T07:34:29;35.00;;;20.38;;
39846;SDS011;25517;52.422;10.782;2024-03-02T07:36:55;37.63;;;21.55;;
39846;SDS011;25517;52.422;10.782;2024-03-02T07:39:20;38.05;;;21.75;;
39846;SDS011;25517;52.422;10.782;2024-03-02T07:41:46;35.30;;;19.98;;
39846;SDS011;25517;52.422;10.782;2024-03-02T07:44:12;35.95;;;20.67;;
39846;SDS011;25517;52.422;10.782;2024-03-02T07:46:41;38.67;;;22.05;;
39846;SDS011;25517;52.422;10.782;2024-03-02T07:49:07;40.55;;;22.58;;
39846;SDS011;25517;52.422;10.782;2024-03-02T07:51:33;35.83;;;21.70;;
39846;SDS011;25517;52.422;10.782;2024-03-02T07:53:59;34.50;;;20.20;;
39846;SDS011;25517;52.422;10.782;2024-03-02T07:56:24;36.88;;;20.52;;
39846;SDS011;25517;52.422;10.782;2024-03-02T07:58:50;34.35;;;20.75;;
39846;SDS011;25517;52.422;10.782;2024-03-02T08:01:16;34.95;;;21.02;;
39846;SDS011;25517;52.422;10.782;2024-03-02T08:03:42;40.15;;;23.65;;
39846;SDS011;25517;52.422;10.782;2024-03-02T08:08:42;41.03;;;22.38;;
39846;SDS011;25517;52.422;10.782;2024-03-02T08:11:07;41.53;;;23.25;;
39846;SDS011;25517;52.422;10.782;2024-03-02T08:13:33;37.53;;;21.90;;
39846;SDS011;25517;52.422;10.782;2024-03-02T08:15:58;39.72;;;24.38;;
39846;SDS011;25517;52.422;10.782;2024-03-02T08:18:24;35.88;;;21.50;;
39846;SDS011;25517;52.422;10.782;2024-03-02T08:20:50;39.22;;;23.10;;
39846;SDS011;25517;52.422;10.782;2024-03-02T08:23:17;36.78;;;23.73;;
39846;SDS011;25517;52.422;10.782;2024-03-02T08:25:42;32.97;;;20.25;;
39846;SDS011;25517;52.422;10.782;2024-03-02T08:28:08;40.03;;;21.73;;
39846;SDS011;25517;52.422;10.782;2024-03-02T08:30:33;32.08;;;20.45;;
39846;SDS011;25517;52.422;10.782;2024-03-02T08:32:59;37.50;;;22.15;;
39846;SDS011;25517;52.422;10.782;2024-03-02T08:35:25;43.25;;;23.15;;
39846;SDS011;25517;52.422;10.782;2024-03-02T08:37:51;33.10;;;19.77;;
39846;SDS011;25517;52.422;10.782;2024-03-02T08:40:16;38.05;;;21.35;;
39846;SDS011;25517;52.422;10.782;2024-03-02T08:42:43;41.80;;;23.73;;
39846;SDS011;25517;52.422;10.782;2024-03-02T08:45:09;33.33;;;20.25;;
39846;SDS011;25517;52.422;10.782;2024-03-02T08:47:34;34.47;;;19.70;;
39846;SDS011;25517;52.422;10.782;2024-03-02T08:50:00;35.47;;;21.52;;
39846;SDS011;25517;52.422;10.782;2024-03-02T08:52:26;34.50;;;20.42;;
39846;SDS011;25517;52.422;10.782;2024-03-02T08:54:51;33.25;;;20.13;;
39846;SDS011;25517;52.422;10.782;2024-03-02T08:57:17;35.20;;;20.55;;
39846;SDS011;25517;52.422;10.782;2024-03-02T08:59:43;31.67;;;19.90;;
39846;SDS011;25517;52.422;10.782;2024-03-02T09:02:09;29.42;;;18.77;;
39846;SDS011;25517;52.422;10.782;2024-03-02T09:04:34;31.05;;;18.50;;
39846;SDS011;25517;52.422;10.782;2024-03-02T09:07:00;33.92;;;19.77;;
39846;SDS011;25517;52.422;10.782;2024-03-02T09:09:26;32.78;;;18.73;;
39846;SDS011;25517;52.422;10.782;2024-03-02T09:11:52;29.48;;;16.95;;
39846;SDS011;25517;52.422;10.782;2024-03-02T09:14:19;27.75;;;17.88;;
39846;SDS011;25517;52.422;10.782;2024-03-02T09:16:46;21.92;;;15.88;;
39846;SDS011;25517;52.422;10.782;2024-03-02T09:19:11;21.50;;;12.93;;
39846;SDS011;25517;52.422;10.782;2024-03-02T09:21:37;18.10;;;13.90;;
39846;SDS011;25517;52.422;10.782;2024-03-02T09:24:02;17.98;;;13.32;;
39846;SDS011;25517;52.422;10.782;2024-03-02T09:26:28;21.80;;;15.07;;
39846;SDS011;25517;52.422;10.782;2024-03-02T09:28:54;21.75;;;14.15;;
39846;SDS011;25517;52.422;10.782;2024-03-02T09:31:19;17.67;;;13.48;;
39846;SDS011;25517;52.422;10.782;2024-03-02T09:33:45;17.50;;;13.63;;
39846;SDS011;25517;52.422;10.782;2024-03-02T09:36:17;16.92;;;11.70;;
39846;SDS011;25517;52.422;10.782;2024-03-02T09:38:47;17.90;;;12.65;;
39846;SDS011;25517;52.422;10.782;2024-03-02T09:41:13;16.48;;;12.85;;
39846;SDS011;25517;52.422;10.782;2024-03-02T09:43:40;15.23;;;12.38;;
39846;SDS011;25517;52.422;10.782;2024-03-02T09:46:06;18.08;;;13.07;;
39846;SDS011;25517;52.422;10.782;2024-03-02T09:48:36;20.00;;;14.13;;
39846;SDS011;25517;52.422;10.782;2024-03-02T09:51:01;20.98;;;15.65;;
39846;SDS011;25517;52.422;10.782;2024-03-02T09:53:32;18.00;;;13.45;;
39846;SDS011;25517;52.422;10.782;2024-03-02T09:55:59;20.42;;;15.57;;
39846;SDS011;25517;52.422;10.782;2024-03-02T09:58:25;20.48;;;15.30;;
39846;SDS011;25517;52.422;10.782;2024-03-02T10:00:51;20.95;;;14.23;;
39846;SDS011;25517;52.422;10.782;2024-03-02T10:03:17;17.48;;;12.93;;
39846;SDS011;25517;52.422;10.782;2024-03-02T10:05:43;20.05;;;14.63;;
39846;SDS011;25517;52.422;10.782;2024-03-02T10:08:09;20.85;;;15.00;;
39846;SDS011;25517;52.422;10.782;2024-03-02T10:10:41;16.88;;;13.20;;
39846;SDS011;25517;52.422;10.782;2024-03-02T10:13:08;19.58;;;14.05;;
39846;SDS011;25517;52.422;10.782;2024-03-02T10:15:38;17.30;;;14.05;;
39846;SDS011;25517;52.422;10.782;2024-03-02T10:18:07;19.92;;;13.75;;
39846;SDS011;25517;52.422;10.782;2024-03-02T10:20:37;22.23;;;13.57;;
39846;SDS011;25517;52.422;10.782;2024-03-02T10:23:09;20.98;;;14.68;;
39846;SDS011;25517;52.422;10.782;2024-03-02T10:25:39;18.15;;;13.52;;
39846;SDS011;25517;52.422;10.782;2024-03-02T10:28:05;21.30;;;15.75;;
39846;SDS011;25517;52.422;10.782;2024-03-02T10:30:31;23.10;;;15.02;;
39846;SDS011;25517;52.422;10.782;2024-03-02T10:32:57;18.67;;;14.32;;
39846;SDS011;25517;52.422;10.782;2024-03-02T10:35:23;19.95;;;13.60;;
39846;SDS011;25517;52.422;10.782;2024-03-02T10:37:49;22.55;;;14.68;;
39846;SDS011;25517;52.422;10.782;2024-03-02T10:40:15;24.25;;;16.33;;
39846;SDS011;25517;52.422;10.782;2024-03-02T10:42:44;19.98;;;15.00;;
39846;SDS011;25517;52.422;10.782;2024-03-02T10:45:10;21.38;;;14.57;;
39846;SDS011;25517;52.422;10.782;2024-03-02T10:47:37;21.05;;;13.93;;
39846;SDS011;25517;52.422;10.782;2024-03-02T10:50:06;22.90;;;16.75;;
39846;SDS011;25517;52.422;10.782;2024-03-02T10:52:35;20.92;;;15.50;;
39846;SDS011;25517;52.422;10.782;2024-03-02T10:55:01;22.23;;;15.20;;
39846;SDS011;25517;52.422;10.782;2024-03-02T10:57:31;25.90;;;17.05;;
39846;SDS011;25517;52.422;10.782;2024-03-02T11:00:05;28.45;;;18.98;;
39846;SDS011;25517;52.422;10.782;2024-03-02T11:02:32;26.50;;;16.35;;
39846;SDS011;25517;52.422;10.782;2024-03-02T11:05:02;19.80;;;13.02;;
39846;SDS011;25517;52.422;10.782;2024-03-02T11:07:32;18.30;;;11.20;;
39846;SDS011;25517;52.422;10.782;2024-03-02T11:09:59;16.92;;;11.95;;
39846;SDS011;25517;52.422;10.782;2024-03-02T11:12:35;19.15;;;13.35;;
39846;SDS011;25517;52.422;10.782;2024-03-02T11:15:10;17.98;;;11.93;;
39846;SDS011;25517;52.422;10.782;2024-03-02T11:17:36;19.95;;;12.07;;
39846;SDS011;25517;52.422;10.782;2024-03-02T11:20:05;17.77;;;10.75;;
39846;SDS011;25517;52.422;10.782;2024-03-02T11:22:34;19.75;;;12.15;;
39846;SDS011;25517;52.422;10.782;2024-03-02T11:25:01;19.23;;;11.73;;
39846;SDS011;25517;52.422;10.782;2024-03-02T11:30:25;14.80;;;9.70;;
39846;SDS011;25517;52.422;10.782;2024-03-02T11:33:05;18.85;;;11.63;;
39846;SDS011;25517;52.422;10.782;2024-03-02T11:35:40;13.85;;;9.88;;
39846;SDS011;25517;52.422;10.782;2024-03-02T11:38:14;10.13;;;7.25;;
39846;SDS011;25517;52.422;10.782;2024-03-02T11:40:39;12.10;;;7.93;;
39846;SDS011;25517;52.422;10.782;2024-03-02T11:43:05;12.27;;;6.97;;
39846;SDS011;25517;52.422;10.782;2024-03-02T11:45:32;12.95;;;7.82;;
39846;SDS011;25517;52.422;10.782;2024-03-02T11:47:59;14.07;;;8.55;;
39846;SDS011;25517;52.422;10.782;2024-03-02T11:50:34;12.27;;;7.60;;
39846;SDS011;25517;52.422;10.782;2024-03-02T11:53:02;8.85;;;5.85;;
39846;SDS011;25517;52.422;10.782;2024-03-02T11:55:31;7.70;;;5.50;;
39846;SDS011;25517;52.422;10.782;2024-03-02T11:57:59;7.63;;;4.82;;
39846;SDS011;25517;52.422;10.782;2024-03-02T12:00:27;7.68;;;5.20;;
39846;SDS011;25517;52.422;10.782;2024-03-02T12:03:03;8.32;;;6.00;;
39846;SDS011;25517;52.422;10.782;2024-03-02T12:05:33;8.40;;;6.22;;
39846;SDS011;25517;52.422;10.782;2024-03-02T12:08:00;8.77;;;5.78;;
39846;SDS011;25517;52.422;10.782;2024-03-02T12:10:27;13.50;;;8.02;;
39846;SDS011;25517;52.422;10.782;2024-03-02T12:15:31;10.98;;;7.80;;
39846;SDS011;25517;52.422;10.782;2024-03-02T12:17:59;11.13;;;8.20;;
39846;SDS011;25517;52.422;10.782;2024-03-02T12:20:26;15.05;;;9.43;;
39846;SDS011;25517;52.422;10.782;2024-03-02T12:22:54;13.07;;;8.15;;
39846;SDS011;25517;52.422;10.782;2024-03-02T12:25:21;12.98;;;8.40;;
39846;SDS011;25517;52.422;10.782;2024-03-02T12:27:48;14.80;;;8.95;;
39846;SDS011;25517;52.422;10.782;2024-03-02T12:30:18;12.68;;;8.05;;
39846;SDS011;25517;52.422;10.782;2024-03-02T12:32:44;9.60;;;6.88;;
39846;SDS011;25517;52.422;10.782;2024-03-02T12:35:11;12.77;;;7.28;;
39846;SDS011;25517;52.422;10.782;2024-03-02T12:37:49;7.80;;;5.03;;
39846;SDS011;25517;52.422;10.782;2024-03-02T12:40:16;10.10;;;6.35;;
39846;SDS011;25517;52.422;10.782;2024-03-02T12:42:44;12.70;;;6.18;;
39846;SDS011;25517;52.422;10.782;2024-03-02T12:45:13;9.52;;;6.28;;
39846;SDS011;25517;52.422;10.782;2024-03-02T12:47:41;11.63;;;6.97;;
39846;SDS011;25517;52.422;10.782;2024-03-02T12:50:07;9.88;;;5.93;;
39846;SDS011;25517;52.422;10.782;2024-03-02T12:52:34;15.18;;;6.07;;
39846;SDS011;25517;52.422;10.782;2024-03-02T12:55:00;7.75;;;5.13;;
39846;SDS011;25517;52.422;10.782;2024-03-02T12:57:28;10.55;;;6.88;;
39846;SDS011;25517;52.422;10.782;2024-03-02T13:00:05;9.95;;;6.55;;
39846;SDS011;25517;52.422;10.782;2024-03-02T13:02:34;7.82;;;5.32;;
39846;SDS011;25517;52.422;10.782;2024-03-02T13:05:01;10.43;;;6.95;;
39846;SDS011;25517;52.422;10.782;2024-03-02T13:07:27;9.73;;;6.78;;
39846;SDS011;25517;52.422;10.782;2024-03-02T13:09:54;10.95;;;6.93;;
39846;SDS011;25517;52.422;10.782;2024-03-02T13:12:21;9.48;;;6.22;;
39846;SDS011;25517;52.422;10.782;2024-03-02T13:14:48;9.98;;;6.05;;
39846;SDS011;25517;52.422;10.782;2024-03-02T13:17:17;10.65;;;5.82;;
39846;SDS011;25517;52.422;10.782;2024-03-02T13:19:59;10.48;;;6.47;;
39846;SDS011;25517;52.422;10.782;2024-03-02T13:22:25;8.23;;;5.40;;
39846;SDS011;25517;52.422;10.782;2024-03-02T13:24:51;8.90;;;4.90;;
39846;SDS011;25517;52.422;10.782;2024-03-02T13:27:19;13.73;;;6.75;;
39846;SDS011;25517;52.422;10.782;2024-03-02T13:29:45;8.15;;;5.70;;
39846;SDS011;25517;52.422;10.782;2024-03-02T13:32:12;12.82;;;7.78;;
39846;SDS011;25517;52.422;10.782;2024-03-02T13:34:38;16.08;;;8.85;;
39846;SDS011;25517;52.422;10.782;2024-03-02T13:37:04;11.85;;;8.07;;
39846;SDS011;25517;52.422;10.782;2024-03-02T13:39:31;13.50;;;8.18;;
39846;SDS011;25517;52.422;10.782;2024-03-02T13:41:57;11.88;;;8.07;;
39846;SDS011;25517;52.422;10.782;2024-03-02T13:44:29;13.55;;;9.02;;
39846;SDS011;25517;52.422;10.782;2024-03-02T13:46:55;15.70;;;10.30;;
39846;SDS011;25517;52.422;10.782;2024-03-02T13:49:21;17.55;;;10.30;;
39846;SDS011;25517;52.422;10.782;2024-03-02T13:51:48;17.80;;;10.10;;
39846;SDS011;25517;52.422;10.782;2024-03-02T13:54:13;20.55;;;11.70;;
39846;SDS011;25517;52.422;10.782;2024-03-02T13:56:39;21.55;;;10.85;;
39846;SDS011;25517;52.422;10.782;2024-03-02T13:59:07;26.83;;;12.48;;
39846;SDS011;25517;52.422;10.782;2024-03-02T14:01:33;24.58;;;10.82;;
39846;SDS011;25517;52.422;10.782;2024-03-02T14:03:59;20.17;;;11.05;;
39846;SDS011;25517;52.422;10.782;2024-03-02T14:06:24;17.05;;;11.32;;
39846;SDS011;25517;52.422;10.782;2024-03-02T14:08:52;16.75;;;10.50;;
39846;SDS011;25517;52.422;10.782;2024-03-02T14:11:18;15.52;;;9.52;;
39846;SDS011;25517;52.422;10.782;2024-03-02T14:13:44;11.70;;;7.82;;
39846;SDS011;25517;52.422;10.782;2024-03-02T14:18:40;12.13;;;6.53;;
39846;SDS011;25517;52.422;10.782;2024-03-02T14:21:06;9.88;;;5.30;;
39846;SDS011;25517;52.422;10.782;2024-03-02T14:23:32;8.18;;;4.93;;
39846;SDS011;25517;52.422;10.782;2024-03-02T14:25:57;10.77;;;6.45;;